Terminal Aerodrome Forecast
Issued by NWS Bismarck, ND

Home | Current Version | Previous Version | Text Only | Print | Product List | Glossary On
Versions: 1 2 3 4 5 6 7 8 9 10 11 12 13 14
811
FTUS43 KBIS 231731
TAFISN
TAF
KISN 231731Z 2318/2418 25007KT P6SM SCT090
     FM232300 26006KT 3SM BR FEW050
     FM240100 25005KT 1 1/2SM BR SCT045
     FM240500 22004KT 1 1/2SM BR SCT015
     FM241100 19004KT P6SM BKN200=

USA.gov is the U.S. government's official web portal to all federal, state and local government web resources and services.